METAR UND TAF INFORMATION
CYEG 210600Z 22006KT 20SM FEW250 M05/M09 A3005 RMK CI1 SLP203

 FLUGHAFENKARTE

 RUNWAY INFORMATION
Runway 02 Runway length 11000 ft Runway width 200 ft
Runway elevation 2322 ft Runway displaced threshold 0 ft Runway heading 34
Runway 20 Runway length 11000 ft Runway width 200 ft
Runway elevation 2337 ft Runway displaced threshold 0 ft Runway heading 214
Runway 12 Runway length 10200 ft Runway width 200 ft
Runway elevation 2325 ft Runway displaced threshold 0 ft Runway heading 135
Runway 30 Runway length 10200 ft Runway width 200 ft
Runway elevation 2372 ft Runway displaced threshold 0 ft Runway heading 315

 AIRPORT FREQUENCIES
Type AAS Name TWR VFR AD Frequency 118.3 MHZ
Type APP Name APP Frequency 118.3 MHZ
Type ARR Name ARR Frequency 120.5 MHZ
Type ATIS Name ATIS Frequency 128 MHZ
Type CLD Name CLNC DEL Frequency 124.1 MHZ
Type DEP Name DEP Frequency 133.65 MHZ
Type FSS Name RDO Frequency 122.5 MHZ
Type GND Name GND Frequency 121.7 MHZ
Type INFO Name EXEC FLT C Frequency 122.95 MHZ
Type INFO Name FLT TECH A Frequency 123 MHZ
Type TWR Name TWR Frequency 118.3 MHZ

 AIRPORT NEAR NAVIGATION AIDS
Type VORTAC Name Edmonton Frequency 117600 KHZ
Type NDB Name Leduc Frequency 215 KHZ
Type NDB Name Nisku Frequency 379 KHZ
Type NDB Name Devon Frequency 292 KHZ
Type NDB Name Calmar Frequency 308 KHZ



Aktuelle Version 4.2.2: Changelog

Impressum | Datenschutzerklärung

Virtual Airlines Manager